createdAt,value
2023-02-23T00:01:27.542Z,2.1
2023-02-23T00:07:21.788Z,1.9
2023-02-23T00:13:14.353Z,1.9
2023-02-23T00:19:06.492Z,1.8
2023-02-23T00:24:43.813Z,1.7
2023-02-23T00:30:39.212Z,1.6
2023-02-23T00:36:34.422Z,1.5
2023-02-23T00:42:27.366Z,1.4
2023-02-23T00:48:21.588Z,1.3
2023-02-23T00:54:14.315Z,1.2
2023-02-23T01:00:07.223Z,1.1
2023-02-23T01:06:00.105Z,1.1
2023-02-23T01:11:52.957Z,1
2023-02-23T01:17:46.544Z,0.9
2023-02-23T01:23:40.053Z,0.9
2023-02-23T01:29:17.538Z,0.9
2023-02-23T01:35:12.932Z,0.8
2023-02-23T01:41:06.383Z,0.8
2023-02-23T01:46:58.387Z,0.7
2023-02-23T01:52:36.265Z,0.6
2023-02-23T01:58:29.974Z,0.6
2023-02-23T02:04:06.808Z,0.5
2023-02-23T02:10:00.142Z,0.4
2023-02-23T02:15:53.813Z,0.4
2023-02-23T02:21:30.645Z,0.3
2023-02-23T02:27:09.184Z,0.2
2023-02-23T02:33:03.097Z,0.1
2023-02-23T02:38:56.184Z,0
2023-02-23T02:44:49.495Z,-0.1
2023-02-23T02:50:27.978Z,-0.1
2023-02-23T02:56:05.381Z,-0.3
2023-02-23T03:01:42.474Z,-0.3
2023-02-23T03:07:19.910Z,-0.4
2023-02-23T03:12:41.668Z,-0.4
2023-02-23T03:18:19.544Z,-0.6
2023-02-23T03:23:57.724Z,-0.6
2023-02-23T03:29:34.700Z,-0.7
2023-02-23T03:34:55.876Z,-0.8
2023-02-23T03:40:02.983Z,-0.8
2023-02-23T03:45:41.359Z,-0.9
2023-02-23T03:51:19.280Z,-0.9
2023-02-23T04:30:11.716Z,-0.9
2023-02-23T04:36:05.158Z,-0.9
2023-02-23T04:52:42.466Z,-1
2023-02-23T04:58:38.642Z,-1
2023-02-23T05:04:34.397Z,-1.1
2023-02-23T05:10:25.541Z,-1.1
2023-02-23T05:16:18.764Z,-1.1
2023-02-23T05:22:13.161Z,-1.2
2023-02-23T05:28:05.184Z,-1.3
2023-02-23T05:33:59.712Z,-1.3
2023-02-23T05:39:53.415Z,-1.3
2023-02-23T05:45:45.035Z,-1.2
2023-02-23T05:51:23.219Z,-1.2
2023-02-23T05:57:01.972Z,-1
2023-02-23T06:02:38.228Z,-0.8
2023-02-23T06:08:31.171Z,-0.4
2023-02-23T06:14:25.092Z,0.2
2023-02-23T06:20:16.412Z,0.9
2023-02-23T06:26:09.646Z,2
2023-02-23T06:32:05.178Z,3.3
2023-02-23T06:37:57.557Z,4.9
2023-02-23T06:43:49.603Z,6.6
2023-02-23T06:49:42.652Z,28.8
2023-02-23T06:55:20.141Z,30
2023-02-23T07:01:14.979Z,28.8
2023-02-23T07:07:08.593Z,36.3
2023-02-23T07:13:01.769Z,36.5
2023-02-23T07:18:58.572Z,37.8
2023-02-23T07:24:51.666Z,39.1
2023-02-23T07:30:44.129Z,40.4
2023-02-23T07:36:38.321Z,40.3
2023-02-23T07:42:32.900Z,41.4
2023-02-23T07:48:25.969Z,42.6
2023-02-23T07:54:18.711Z,43.8
2023-02-23T08:00:13.676Z,44.8
2023-02-23T08:06:06.579Z,46.1
2023-02-23T08:12:01.127Z,47.1
2023-02-23T08:17:54.192Z,48.2
2023-02-23T08:23:58.873Z,49.4
2023-02-23T08:29:51.602Z,50.4
2023-02-23T08:35:45.845Z,51.5
2023-02-23T08:41:38.817Z,52.6
2023-02-23T08:47:31.779Z,53.6
2023-02-23T08:53:24.891Z,54.5
2023-02-23T08:59:01.127Z,54.8
2023-02-23T09:04:53.548Z,56
2023-02-23T09:10:47.072Z,56.9
2023-02-23T09:16:39.458Z,57.3
2023-02-23T09:22:32.734Z,58.1
2023-02-23T09:28:12.852Z,58.9
2023-02-23T09:33:51.142Z,59.3
2023-02-23T09:39:37.562Z,59.6
2023-02-23T09:45:18.529Z,60.4
2023-02-23T09:51:11.006Z,61.1
2023-02-23T09:57:04.442Z,61.6
2023-02-23T10:02:58.254Z,62.3
2023-02-23T10:08:37.436Z,62.8
2023-02-23T10:14:33.091Z,63.4
2023-02-23T10:20:29.110Z,63.9
2023-02-23T10:26:22.031Z,64.3
2023-02-23T10:32:15.568Z,64.9
2023-02-23T10:37:58.621Z,65.3
2023-02-23T10:43:51.717Z,65.6
2023-02-23T10:49:36.084Z,66.2
2023-02-23T10:55:19.539Z,66.8
2023-02-23T11:01:12.681Z,67.1
2023-02-23T11:07:30.617Z,67.7
2023-02-23T11:13:41.005Z,68.1
2023-02-23T11:19:46.490Z,68.3
2023-02-23T11:25:49.538Z,67.9
2023-02-23T11:31:42.728Z,68.4
2023-02-23T11:37:35.645Z,67.8
2023-02-23T11:43:28.568Z,67.5
2023-02-23T11:49:26.598Z,67.6
2023-02-23T11:55:18.560Z,67.9
2023-02-23T12:00:57.550Z,67.9
2023-02-23T12:06:50.926Z,67.2
2023-02-23T12:12:28.822Z,67.1
2023-02-23T12:18:22.750Z,67.4
2023-02-23T12:24:15.368Z,67.1
2023-02-23T12:30:19.730Z,66.2
2023-02-23T12:36:13.250Z,65.4
2023-02-23T12:42:06.449Z,64.7
2023-02-23T12:47:58.955Z,64.3
2023-02-23T12:53:37.254Z,63.8
2023-02-23T12:59:31.467Z,63.4
2023-02-23T13:05:25.037Z,62.8
2023-02-23T13:11:25.438Z,62.3
2023-02-23T13:17:19.026Z,61.6
2023-02-23T13:22:56.776Z,61.1
2023-02-23T13:28:33.980Z,60.6
2023-02-23T13:34:22.611Z,59.8
2023-02-23T13:40:28.537Z,59
2023-02-23T13:46:21.206Z,58.2
2023-02-23T13:52:21.714Z,57.4
2023-02-23T13:58:23.778Z,56.5
2023-02-23T14:04:18.271Z,54.1
2023-02-23T14:09:42.122Z,51.3
2023-02-23T14:15:38.082Z,48.4
2023-02-23T14:21:41.099Z,45.8
2023-02-23T14:27:50.338Z,43.4
2023-02-23T14:33:37.961Z,41.1
2023-02-23T14:39:42.862Z,38.8
2023-02-23T14:45:47.444Z,36.8
2023-02-23T14:51:54.548Z,34.9
2023-02-23T14:57:38.545Z,33.4
2023-02-23T15:03:48.162Z,31.8
2023-02-23T15:09:40.803Z,30.4
2023-02-23T15:15:40.676Z,29
2023-02-23T15:21:44.770Z,27.6
2023-02-23T15:27:51.832Z,26.3
2023-02-23T15:33:46.422Z,25.1
2023-02-23T15:40:12.211Z,23.8
2023-02-23T15:46:13.317Z,22.8
2023-02-23T15:52:20.216Z,21.8
2023-02-23T15:57:58.094Z,20.8
2023-02-23T16:03:59.330Z,19.9
2023-02-23T16:10:01.644Z,19.1
2023-02-23T16:15:54.974Z,18.3
2023-02-23T16:21:57.795Z,17.6
2023-02-23T16:27:58.517Z,16.9
2023-02-23T16:33:21.392Z,16.3
2023-02-23T16:38:58.573Z,15.8
2023-02-23T16:45:00.042Z,15.3
2023-02-23T16:50:58.638Z,14.8
2023-02-23T16:56:51.394Z,14.3
2023-02-23T17:02:46.522Z,13.9
2023-02-23T17:08:36.705Z,13.6
2023-02-23T17:14:34.982Z,13.2
2023-02-23T17:20:27.933Z,12.9
2023-02-23T17:26:21.305Z,12.6
2023-02-23T17:32:18.812Z,12.3
2023-02-23T17:38:12.101Z,12
2023-02-23T17:44:05.366Z,11.8
2023-02-23T17:49:59.386Z,11.6
2023-02-23T17:55:54.216Z,11.3
2023-02-23T18:01:48.559Z,11.1
2023-02-23T18:07:41.695Z,10.9
2023-02-23T18:13:19.081Z,10.7
2023-02-23T18:19:12.697Z,10.5
2023-02-23T18:25:07.790Z,10.3
2023-02-23T18:30:44.513Z,10.2
2023-02-23T18:36:39.937Z,10
2023-02-23T18:42:33.121Z,9.8
2023-02-23T18:48:10.317Z,9.7
2023-02-23T18:53:47.874Z,9.6
2023-02-23T18:59:43.773Z,9.4
2023-02-23T19:05:38.810Z,9.3
2023-02-23T19:11:16.707Z,9.2
2023-02-23T19:17:23.437Z,9
2023-02-23T19:23:17.065Z,8.9
2023-02-23T19:28:54.328Z,8.8
2023-02-23T19:34:49.610Z,8.6
2023-02-23T19:40:42.224Z,8.5
2023-02-23T19:46:34.956Z,8.4
2023-02-23T19:52:28.502Z,8.3
2023-02-23T19:58:19.592Z,8.2
2023-02-23T20:04:13.007Z,8.1
2023-02-23T20:10:07.374Z,7.9
2023-02-23T20:15:59.705Z,7.9
2023-02-23T20:21:52.774Z,7.8
2023-02-23T20:27:45.411Z,7.7
2023-02-23T20:33:40.522Z,7.6
2023-02-23T20:39:33.427Z,7.6
2023-02-23T20:45:27.289Z,7.5
2023-02-23T20:51:20.017Z,7.4
2023-02-23T20:56:58.282Z,7.4
2023-02-23T21:02:37.580Z,7.3
2023-02-23T21:08:31.006Z,7.3
2023-02-23T21:14:23.842Z,7.3
2023-02-23T21:20:01.774Z,7.2
2023-02-23T21:25:56.705Z,7.1
2023-02-23T21:31:22.059Z,7.1
2023-02-23T21:37:16.344Z,7.1
2023-02-23T21:43:09.054Z,7.1
2023-02-23T21:49:02.550Z,7
2023-02-23T21:54:56.153Z,7.1
2023-02-23T22:00:55.910Z,7
2023-02-23T22:06:49.280Z,7
2023-02-23T22:12:25.938Z,7
2023-02-23T22:18:19.121Z,7
2023-02-23T22:24:12.290Z,6.9
2023-02-23T22:30:05.382Z,6.9
2023-02-23T22:35:58.884Z,6.9
2023-02-23T22:41:36.182Z,6.9
2023-02-23T22:47:29.283Z,6.9
2023-02-23T22:54:06.188Z,6.9
2023-02-23T22:59:43.355Z,6.9
2023-02-23T23:05:37.143Z,6.9
2023-02-23T23:11:30.823Z,6.9
2023-02-23T23:17:43.292Z,6.9
2023-02-23T23:23:36.541Z,6.9
2023-02-23T23:29:28.532Z,6.8
2023-02-23T23:35:23.724Z,6.8
2023-02-23T23:41:15.969Z,6.8
2023-02-23T23:47:08.903Z,6.8
2023-02-23T23:53:01.867Z,6.7
2023-02-23T23:58:55.611Z,6.7
